Time;durP1;ratioP1;P1;durP2;ratioP2;P2;SDS_P1;SDS_P2;PMS_P1;PMS_P2;Temp;Humidity;BMP_temperature;BMP_pressure;BME280_temperature;BME280_humidity;BME280_pressure;Samples;Min_cycle;Max_cycle;Signal;HPM_P1;HPM_P2
2021/09/02 00:01:44;;;;;;;13.43;5.80;;;436.10;2355.20;;;;;;5093913;28;20028;-61
2021/09/02 00:04:09;;;;;;;8.07;4.55;;;460.80;2380.80;;;;;;5093362;28;20020;-61
2021/09/02 00:06:35;;;;;;;7.50;5.03;;;436.10;2355.20;;;;;;5093460;28;20024;-61
2021/09/02 00:09:01;;;;;;;8.27;5.07;;;436.10;2355.20;;;;;;5093557;28;20355;-60
2021/09/02 00:11:27;;;;;;;8.48;5.97;;;436.10;2355.20;;;;;;5092919;28;20051;-61
2021/09/02 00:13:52;;;;;;;7.18;4.97;;;460.80;2380.80;;;;;;5093585;28;20579;-60
2021/09/02 00:16:18;;;;;;;7.15;5.50;;;460.80;2380.80;;;;;;5094458;28;20501;-63
2021/09/02 00:18:44;;;;;;;12.25;5.70;;;460.80;2380.80;;;;;;5083075;28;20028;-61
2021/09/02 00:21:10;;;;;;;7.70;5.13;;;460.80;2380.80;;;;;;5080777;28;20052;-61
2021/09/02 00:23:36;;;;;;;6.00;4.10;;;460.80;2380.80;;;;;;5081552;28;20016;-61
2021/09/02 00:26:02;;;;;;;7.68;5.72;;;460.90;2380.80;;;;;;5082797;28;20020;-62
2021/09/02 00:28:28;;;;;;;7.07;5.00;;;460.90;2380.80;;;;;;5080942;28;20438;-60
2021/09/02 00:30:53;;;;;;;8.27;5.35;;;460.80;2380.80;;;;;;5081855;28;20020;-61
2021/09/02 00:33:19;;;;;;;12.73;5.20;;;460.80;2380.80;;;;;;5082128;28;20044;-62
2021/09/02 00:35:46;;;;;;;6.53;4.97;;;460.90;2380.80;;;;;;5077626;28;20024;-60
2021/09/02 00:38:12;;;;;;;7.13;5.03;;;460.80;2380.80;;;;;;5072734;28;20064;-61
2021/09/02 00:40:38;;;;;;;10.60;5.95;;;460.90;2380.80;;;;;;5072811;28;20021;-61
2021/09/02 00:43:04;;;;;;;8.48;5.18;;;460.80;2380.80;;;;;;5072655;28;20012;-61
2021/09/02 00:45:30;;;;;;;9.48;5.60;;;460.80;2380.80;;;;;;5072509;28;20107;-60
2021/09/02 00:47:56;;;;;;;8.25;5.65;;;436.10;2355.20;;;;;;5072744;28;20028;-61
2021/09/02 00:50:21;;;;;;;9.38;5.38;;;436.10;2355.20;;;;;;5072285;28;20060;-60
2021/09/02 00:52:47;;;;;;;12.68;6.15;;;460.80;2380.80;;;;;;5072351;28;20047;-60
2021/09/02 00:55:13;;;;;;;8.80;5.72;;;436.10;2355.20;;;;;;5072756;28;20031;-60
2021/09/02 00:57:39;;;;;;;7.13;4.78;;;436.10;2355.20;;;;;;5072318;28;20414;-60
2021/09/02 01:00:07;;;;;;;7.75;5.28;;;436.10;2355.20;;;;;;5072449;28;20465;-60
2021/09/02 01:02:33;;;;;;;7.05;4.95;;;436.10;2355.20;;;;;;5071417;28;20057;-60
2021/09/02 01:04:59;;;;;;;9.32;5.28;;;436.10;2355.20;;;;;;5071983;28;20063;-61
2021/09/02 01:07:27;;;;;;;7.57;5.25;;;460.80;2380.80;;;;;;5071998;28;20119;-60
2021/09/02 01:09:53;;;;;;;8.65;5.75;;;436.10;2355.20;;;;;;5072154;28;20024;-61
2021/09/02 01:12:27;;;;;;;8.57;5.88;;;436.10;2355.20;;;;;;5072080;28;20104;-62
2021/09/02 01:14:53;;;;;;;9.48;5.70;;;436.10;2355.20;;;;;;5072297;28;20025;-60
2021/09/02 01:17:20;;;;;;;9.95;5.18;;;436.00;2355.20;;;;;;5071881;28;20429;-60
2021/09/02 01:19:47;;;;;;;6.15;4.63;;;436.10;2355.20;;;;;;5072136;28;20081;-61
2021/09/02 01:22:13;;;;;;;7.85;5.53;;;436.00;2355.20;;;;;;5071930;28;20074;-61
2021/09/02 01:24:39;;;;;;;7.95;5.07;;;436.00;2355.20;;;;;;5071853;28;20115;-61
2021/09/02 01:27:04;;;;;;;8.75;5.43;;;436.00;2355.20;;;;;;5071807;28;20468;-60
2021/09/02 01:29:30;;;;;;;8.05;5.68;;;435.90;2355.20;;;;;;5071665;28;20024;-60
2021/09/02 01:31:57;;;;;;;6.90;5.15;;;435.90;2355.20;;;;;;5071849;28;20025;-60
2021/09/02 01:34:23;;;;;;;6.97;5.80;;;435.90;2355.20;;;;;;5071888;28;20159;-60
2021/09/02 01:36:49;;;;;;;9.73;5.70;;;435.80;2355.20;;;;;;5071634;28;20052;-61
2021/09/02 01:39:19;;;;;;;7.97;5.68;;;435.80;2355.20;;;;;;5071898;28;20036;-59
2021/09/02 01:41:45;;;;;;;8.40;5.75;;;435.80;2355.20;;;;;;5071686;28;20115;-60
2021/09/02 01:44:10;;;;;;;10.30;6.45;;;435.70;2355.20;;;;;;5071361;28;20116;-60
2021/09/02 01:46:36;;;;;;;8.48;5.25;;;435.70;2355.20;;;;;;5071833;28;20118;-60
2021/09/02 01:49:02;;;;;;;10.45;5.63;;;435.60;2355.20;;;;;;5071521;28;20028;-60
2021/09/02 01:51:28;;;;;;;11.48;4.78;;;435.70;2355.20;;;;;;5070568;28;20033;-60
2021/09/02 01:53:54;;;;;;;8.23;4.82;;;435.60;2355.20;;;;;;5071531;28;20433;-60
2021/09/02 01:56:20;;;;;;;8.23;5.20;;;435.60;2355.20;;;;;;5071472;28;20021;-60
2021/09/02 01:58:46;;;;;;;10.32;5.50;;;435.60;2355.20;;;;;;5071420;28;20495;-60
2021/09/02 02:01:12;;;;;;;8.90;5.70;;;435.50;2355.20;;;;;;5071105;28;20025;-60
2021/09/02 02:03:38;;;;;;;7.10;5.30;;;435.50;2355.20;;;;;;5071025;28;20051;-60
2021/09/02 02:06:03;;;;;;;6.45;5.20;;;435.40;2355.20;;;;;;5070910;28;20063;-59
2021/09/02 02:08:29;;;;;;;8.73;5.90;;;435.40;2355.20;;;;;;5070864;28;20048;-60
2021/09/02 02:10:55;;;;;;;7.25;5.38;;;435.40;2355.20;;;;;;5071137;28;20027;-59
2021/09/02 02:13:21;;;;;;;9.35;6.25;;;435.30;2355.20;;;;;;5070660;28;20040;-60
2021/09/02 02:15:47;;;;;;;9.68;5.88;;;435.30;2355.20;;;;;;5071198;28;20434;-59
2021/09/02 02:18:12;;;;;;;8.50;6.25;;;435.30;2355.20;;;;;;5070894;28;20490;-60
2021/09/02 02:20:38;;;;;;;10.07;5.82;;;435.20;2355.20;;;;;;5070659;28;20021;-60
2021/09/02 02:23:04;;;;;;;9.93;6.13;;;435.20;2355.20;;;;;;5070725;28;20031;-59
2021/09/02 02:25:30;;;;;;;14.10;6.30;;;410.50;2355.20;;;;;;5070505;28;20108;-60
2021/09/02 02:27:56;;;;;;;7.95;6.13;;;410.50;2355.20;;;;;;5070906;28;20142;-60
2021/09/02 02:30:24;;;;;;;7.43;5.43;;;410.40;2355.20;;;;;;5070896;28;20081;-60
2021/09/02 02:32:51;;;;;;;9.52;6.22;;;410.30;2355.20;;;;;;5070545;28;20486;-60
2021/09/02 02:35:19;;;;;;;8.73;6.95;;;410.30;2355.20;;;;;;5070644;28;20029;-60
2021/09/02 02:37:46;;;;;;;8.77;6.38;;;410.20;2355.20;;;;;;5070947;28;20024;-60
2021/09/02 02:40:13;;;;;;;12.05;6.20;;;410.10;2355.20;;;;;;5070952;28;20032;-60
2021/09/02 02:42:40;;;;;;;6.80;5.45;;;410.10;2355.20;;;;;;5070850;28;20119;-60
2021/09/02 02:45:06;;;;;;;7.47;5.68;;;410.00;2355.20;;;;;;5070660;28;20017;-60
2021/09/02 02:47:32;;;;;;;9.77;5.65;;;410.00;2355.20;;;;;;5070514;28;20039;-60
2021/09/02 02:49:58;;;;;;;9.63;5.68;;;409.90;2355.20;;;;;;5070399;28;20020;-60
2021/09/02 02:52:23;;;;;;;10.13;6.32;;;409.90;2355.20;;;;;;5070697;28;20063;-60
2021/09/02 02:54:49;;;;;;;9.85;6.00;;;409.80;2355.20;;;;;;5070531;28;20024;-60
2021/09/02 02:57:15;;;;;;;9.43;5.68;;;409.70;2355.20;;;;;;5070432;28;20044;-60
2021/09/02 02:59:41;;;;;;;9.35;5.50;;;409.70;2355.20;;;;;;5070572;28;20024;-60
2021/09/02 03:02:06;;;;;;;9.57;5.88;;;409.70;2355.20;;;;;;5070610;28;20031;-60
2021/09/02 03:04:32;;;;;;;9.93;5.75;;;409.70;2355.20;;;;;;5070361;28;20486;-60
2021/09/02 03:06:58;;;;;;;7.95;5.65;;;409.60;2355.20;;;;;;5070499;28;20081;-60
2021/09/02 03:09:24;;;;;;;11.55;6.57;;;409.60;2355.20;;;;;;5071767;28;20025;-60
2021/09/02 03:11:49;;;;;;;8.02;5.80;;;409.60;2355.20;;;;;;5069908;28;20033;-60
2021/09/02 03:14:15;;;;;;;8.82;5.28;;;409.60;2355.20;;;;;;5070238;28;20036;-59
2021/09/02 03:16:41;;;;;;;10.38;6.10;;;384.90;2329.60;;;;;;5069979;28;20039;-60
2021/09/02 03:19:07;;;;;;;9.45;6.10;;;384.90;2329.60;;;;;;5069980;28;20471;-61
2021/09/02 03:21:32;;;;;;;9.27;5.40;;;384.90;2329.60;;;;;;5069962;28;20470;-60
2021/09/02 03:23:58;;;;;;;10.82;5.88;;;384.90;2329.60;;;;;;5069766;28;20082;-60
2021/09/02 03:26:24;;;;;;;10.75;5.93;;;384.90;2329.60;;;;;;5073077;28;20383;-60
2021/09/02 03:28:49;;;;;;;7.43;5.90;;;384.90;2329.60;;;;;;5073968;28;20063;-60
2021/09/02 03:31:15;;;;;;;8.65;6.32;;;384.90;2329.60;;;;;;5074320;28;20024;-59
2021/09/02 03:33:41;;;;;;;7.22;5.43;;;384.90;2329.60;;;;;;5073999;28;20123;-59
2021/09/02 03:36:07;;;;;;;7.35;5.82;;;384.90;2329.60;;;;;;5073971;28;20508;-59
2021/09/02 03:38:32;;;;;;;8.95;5.45;;;384.90;2329.60;;;;;;5073948;28;20078;-59
2021/09/02 03:40:58;;;;;;;7.82;5.10;;;384.80;2329.60;;;;;;5073963;28;20054;-61
2021/09/02 03:43:24;;;;;;;7.80;5.28;;;384.80;2329.60;;;;;;5073991;28;20352;-59
2021/09/02 03:45:49;;;;;;;10.63;6.32;;;384.80;2329.60;;;;;;5073765;28;20036;-60
2021/09/02 03:48:16;;;;;;;9.70;5.40;;;384.70;2329.60;;;;;;5073952;28;20437;-59
2021/09/02 03:50:42;;;;;;;8.68;6.13;;;384.70;2329.60;;;;;;5073601;28;20020;-59
2021/09/02 03:53:08;;;;;;;8.15;5.25;;;384.70;2329.60;;;;;;5073423;28;20139;-60
2021/09/02 03:55:34;;;;;;;8.02;6.18;;;384.60;2329.60;;;;;;5073944;28;20425;-60
2021/09/02 03:57:59;;;;;;;9.23;5.00;;;384.60;2329.60;;;;;;5073116;28;20617;-59
2021/09/02 04:00:25;;;;;;;8.57;5.47;;;384.60;2329.60;;;;;;5073965;28;20028;-59
2021/09/02 04:02:51;;;;;;;8.77;5.97;;;384.60;2329.60;;;;;;5073520;28;20467;-60
2021/09/02 04:05:16;;;;;;;11.60;6.22;;;384.60;2329.60;;;;;;5073347;28;20383;-59
2021/09/02 04:07:42;;;;;;;9.20;5.45;;;384.70;2329.60;;;;;;5073315;28;20036;-60
2021/09/02 04:10:09;;;;;;;11.10;5.90;;;384.70;2329.60;;;;;;5073116;28;20029;-61
2021/09/02 04:12:34;;;;;;;10.23;5.65;;;384.70;2329.60;;;;;;5073125;28;20028;-59
2021/09/02 04:15:00;;;;;;;10.93;5.90;;;384.70;2329.60;;;;;;5071413;28;20043;-60
2021/09/02 04:17:26;;;;;;;8.30;5.70;;;384.70;2329.60;;;;;;5073331;28;20463;-60
2021/09/02 04:19:52;;;;;;;9.65;5.88;;;384.70;2329.60;;;;;;5073267;28;20386;-60
2021/09/02 04:22:18;;;;;;;8.88;6.00;;;384.70;2329.60;;;;;;5073094;28;20032;-60
2021/09/02 04:24:43;;;;;;;10.73;6.22;;;384.80;2329.60;;;;;;5072955;28;20055;-59
2021/09/02 04:27:11;;;;;;;8.45;5.80;;;384.90;2329.60;;;;;;5073133;28;20025;-60
2021/09/02 04:29:37;;;;;;;10.77;6.47;;;384.90;2329.60;;;;;;5073036;28;20032;-59
2021/09/02 04:32:03;;;;;;;9.55;5.80;;;384.90;2329.60;;;;;;5073033;28;20028;-60
2021/09/02 04:34:29;;;;;;;7.45;5.20;;;384.90;2329.60;;;;;;5072919;28;20040;-59
2021/09/02 04:36:54;;;;;;;10.00;5.82;;;384.90;2329.60;;;;;;5071408;28;20031;-59
2021/09/02 04:39:20;;;;;;;9.27;6.43;;;384.90;2329.60;;;;;;5072816;28;20467;-60
2021/09/02 04:41:46;;;;;;;11.20;6.50;;;384.90;2329.60;;;;;;5073186;28;20032;-60
2021/09/02 04:44:12;;;;;;;9.90;6.18;;;409.60;2355.20;;;;;;5072745;28;20035;-59
2021/09/02 04:46:38;;;;;;;10.98;6.18;;;409.70;2355.20;;;;;;5072527;28;20021;-61
2021/09/02 04:49:03;;;;;;;9.55;6.10;;;409.70;2355.20;;;;;;5072967;28;20111;-60
2021/09/02 04:51:29;;;;;;;10.77;6.20;;;409.80;2355.20;;;;;;5072616;28;20017;-60
2021/09/02 04:53:55;;;;;;;11.82;6.47;;;409.90;2355.20;;;;;;5072638;28;20036;-61
2021/09/02 04:56:21;;;;;;;7.75;5.60;;;410.00;2355.20;;;;;;5072556;28;20522;-60
2021/09/02 04:58:46;;;;;;;8.82;5.30;;;410.10;2355.20;;;;;;5072588;28;20143;-61
2021/09/02 05:01:12;;;;;;;8.93;6.00;;;410.10;2355.20;;;;;;5072275;28;20016;-60
2021/09/02 05:03:38;;;;;;;10.45;6.03;;;410.20;2355.20;;;;;;5072401;28;20039;-60
2021/09/02 05:06:04;;;;;;;7.80;5.50;;;410.20;2355.20;;;;;;5072271;28;20471;-60
2021/09/02 05:08:29;;;;;;;8.55;6.18;;;410.20;2355.20;;;;;;5072127;28;20148;-60
2021/09/02 05:10:55;;;;;;;10.88;6.60;;;410.30;2355.20;;;;;;5072272;28;20023;-60
2021/09/02 05:13:21;;;;;;;9.50;5.63;;;410.50;2355.20;;;;;;5072082;28;20036;-60
2021/09/02 05:15:47;;;;;;;10.50;6.35;;;435.30;2355.20;;;;;;5072530;28;20032;-60
2021/09/02 05:18:13;;;;;;;7.88;5.70;;;435.50;2355.20;;;;;;5072152;28;20417;-60
2021/09/02 05:20:38;;;;;;;13.60;6.60;;;435.90;2355.20;;;;;;5071764;28;20028;-61
2021/09/02 05:23:04;;;;;;;9.95;5.47;;;436.10;2355.20;;;;;;5071954;28;20078;-60
2021/09/02 05:25:30;;;;;;;6.75;5.63;;;460.80;2380.80;;;;;;5071654;28;20029;-60
2021/09/02 05:27:56;;;;;;;11.20;6.45;;;461.00;2380.80;;;;;;5071738;28;20112;-61
2021/09/02 05:30:22;;;;;;;7.70;5.80;;;460.80;2380.80;;;;;;5071849;28;20031;-60
2021/09/02 05:32:48;;;;;;;9.98;5.65;;;435.90;2355.20;;;;;;5071509;28;20471;-61
2021/09/02 05:35:14;;;;;;;8.75;6.07;;;436.00;2355.20;;;;;;5071664;28;20082;-60
2021/09/02 05:37:40;;;;;;;7.78;5.40;;;461.40;2380.80;;;;;;5071669;28;20039;-60
2021/09/02 05:40:07;;;;;;;7.93;5.38;;;461.50;2380.80;;;;;;5071526;28;20029;-60
2021/09/02 05:42:33;;;;;;;12.88;7.00;;;461.30;2380.80;;;;;;5071934;28;20024;-61
2021/09/02 05:44:59;;;;;;;8.75;6.20;;;461.50;2380.80;;;;;;5071309;28;20104;-60
2021/09/02 05:47:25;;;;;;;9.85;5.57;;;461.40;2380.80;;;;;;5071317;28;20113;-60
2021/09/02 05:49:51;;;;;;;11.07;6.32;;;461.10;2380.80;;;;;;5070824;28;20155;-61
2021/09/02 05:52:16;;;;;;;8.10;5.80;;;461.10;2380.80;;;;;;5071432;28;20020;-61
2021/09/02 05:54:42;;;;;;;10.45;6.50;;;461.20;2380.80;;;;;;5071184;28;20038;-61
2021/09/02 05:57:08;;;;;;;10.73;7.03;;;461.40;2380.80;;;;;;5070861;28;20072;-61
2021/09/02 05:59:34;;;;;;;10.98;5.80;;;461.50;2380.80;;;;;;5071346;28;20029;-61
2021/09/02 06:02:00;;;;;;;9.15;6.38;;;461.70;2380.80;;;;;;5071012;28;20032;-61
2021/09/02 06:04:26;;;;;;;9.80;6.53;;;486.50;2380.80;;;;;;5071251;28;20108;-61
2021/09/02 06:06:51;;;;;;;9.68;6.00;;;486.40;2380.80;;;;;;5070789;28;20123;-61
2021/09/02 06:09:17;;;;;;;8.20;6.70;;;486.40;2380.80;;;;;;5070885;28;20029;-61
2021/09/02 06:11:44;;;;;;;9.48;6.25;;;486.40;2380.80;;;;;;5070938;28;20025;-60
2021/09/02 06:14:10;;;;;;;9.38;6.13;;;486.70;2380.80;;;;;;5070559;28;20072;-61
2021/09/02 06:16:35;;;;;;;9.18;5.72;;;486.80;2380.80;;;;;;5069766;28;20052;-60
2021/09/02 06:19:01;;;;;;;9.55;6.68;;;487.00;2380.80;;;;;;5070797;28;20028;-60
2021/09/02 06:21:27;;;;;;;9.02;6.78;;;487.10;2380.80;;;;;;5070811;28;20038;-62
2021/09/02 06:23:52;;;;;;;9.15;6.55;;;512.60;2380.80;;;;;;5070833;28;20111;-61
2021/09/02 06:26:18;;;;;;;9.95;8.07;;;563.60;2432.00;;;;;;5070607;28;20379;-60
2021/09/02 06:28:44;;;;;;;9.13;8.15;;;640.10;2176.00;;;;;;5070730;28;20044;-60
2021/09/02 06:31:10;;;;;;;12.07;8.48;;;691.70;1996.80;;;;;;5073827;28;20532;-59
2021/09/02 06:33:35;;;;;;;11.63;10.23;;;742.90;1843.20;;;;;;5085091;28;20032;-60
2021/09/02 06:36:02;;;;;;;10.95;9.93;;;768.60;1689.60;;;;;;5090305;28;20038;-61
2021/09/02 06:38:27;;;;;;;11.93;10.93;;;768.80;1612.80;;;;;;5090769;28;20076;-61
2021/09/02 06:40:53;;;;;;;14.18;13.07;;;819.50;1510.40;;;;;;5091122;28;20095;-61
2021/09/02 06:43:19;;;;;;;12.48;11.48;;;819.60;1484.80;;;;;;5090759;28;20488;-61
2021/09/02 06:45:44;;;;;;;14.65;13.30;;;845.30;1408.00;;;;;;5091020;28;20020;-61
2021/09/02 06:48:10;;;;;;;13.70;12.10;;;871.10;1305.60;;;;;;5090648;28;20081;-61
2021/09/02 06:50:36;;;;;;;12.95;12.00;;;871.30;1305.60;;;;;;5090716;28;20016;-60
2021/09/02 06:53:02;;;;;;;12.90;11.95;;;921.60;1228.80;;;;;;5090393;28;20126;-61
2021/09/02 06:55:28;;;;;;;13.15;12.07;;;922.20;1203.20;;;;;;5090548;28;20024;-62
2021/09/02 06:57:53;;;;;;;13.55;12.50;;;922.40;1177.60;;;;;;5090530;28;20055;-61
2021/09/02 07:00:19;;;;;;;11.77;10.88;;;922.10;1177.60;;;;;;5089482;28;20012;-61
2021/09/02 07:02:45;;;;;;;12.93;11.80;;;922.40;1126.40;;;;;;5090664;28;20424;-61
2021/09/02 07:05:11;;;;;;;14.98;13.85;;;947.50;1126.40;;;;;;5090045;28;20050;-62
2021/09/02 07:07:36;;;;;;;14.70;13.45;;;947.80;1100.80;;;;;;5090241;28;20096;-61
2021/09/02 07:10:04;;;;;;;13.13;11.88;;;973.30;1075.20;;;;;;5090187;28;20016;-61
2021/09/02 07:12:30;;;;;;;12.32;11.27;;;973.30;1049.60;;;;;;5089983;28;20028;-62
2021/09/02 07:14:56;;;;;;;13.13;12.23;;;973.40;1049.60;;;;;;5090385;28;20081;-62
2021/09/02 07:17:22;;;;;;;13.15;12.25;;;973.50;1049.60;;;;;;5090275;28;20081;-62
2021/09/02 07:19:47;;;;;;;14.55;13.20;;;998.50;1049.60;;;;;;5090353;28;20111;-63
2021/09/02 07:22:13;;;;;;;12.60;11.70;;;998.50;1024.00;;;;;;5090412;28;20031;-62
2021/09/02 07:24:39;;;;;;;11.25;10.45;;;998.70;998.40;;;;;;5090013;28;20029;-61
2021/09/02 07:27:05;;;;;;;13.18;12.18;;;998.60;1024.00;;;;;;5090197;28;20478;-62
2021/09/02 07:29:31;;;;;;;11.82;10.93;;;998.50;1024.00;;;;;;5089922;28;20115;-61
2021/09/02 07:31:57;;;;;;;12.65;11.43;;;998.80;998.40;;;;;;5090052;28;20050;-62
2021/09/02 07:34:23;;;;;;;12.52;11.38;;;999.10;998.40;;;;;;5090296;28;20044;-62
2021/09/02 07:36:49;;;;;;;11.65;10.70;;;999.30;972.80;;;;;;5089797;28;20375;-63
2021/09/02 07:39:15;;;;;;;12.20;11.30;;;1024.40;972.80;;;;;;5090372;28;20028;-62
2021/09/02 07:41:41;;;;;;;12.63;11.27;;;1024.20;947.20;;;;;;5090026;28;20467;-61
2021/09/02 07:44:07;;;;;;;12.55;11.32;;;1049.60;947.20;;;;;;5090256;28;20020;-62
2021/09/02 07:46:33;;;;;;;13.18;11.65;;;1049.70;972.80;;;;;;5090285;28;20111;-60
2021/09/02 07:48:58;;;;;;;12.05;11.25;;;1024.90;921.60;;;;;;5090266;28;20081;-62
2021/09/02 07:51:24;;;;;;;11.55;10.63;;;1050.00;947.20;;;;;;5090152;28;20484;-61
2021/09/02 07:53:50;;;;;;;11.25;10.43;;;1050.30;921.60;;;;;;5089963;28;20051;-62
2021/09/02 07:56:16;;;;;;;12.02;11.13;;;1024.40;947.20;;;;;;5090188;28;20069;-61
2021/09/02 07:58:42;;;;;;;11.45;10.63;;;1049.90;921.60;;;;;;5089662;28;20510;-61
2021/09/02 08:01:10;;;;;;;12.10;11.13;;;1050.30;896.00;;;;;;5089952;28;20032;-62
2021/09/02 08:03:37;;;;;;;9.15;8.25;;;1050.30;896.00;;;;;;5089834;28;20028;-62
2021/09/02 08:06:04;;;;;;;12.23;11.32;;;1024.90;896.00;;;;;;5089578;28;20028;-61
2021/09/02 08:08:31;;;;;;;8.55;7.80;;;1049.60;921.60;;;;;;5089607;28;20383;-62
2021/09/02 08:10:57;;;;;;;11.13;10.13;;;998.50;972.80;;;;;;5090184;28;20030;-61
2021/09/02 08:13:22;;;;;;;8.55;7.65;;;947.20;1024.00;;;;;;5093327;28;20036;-61
2021/09/02 08:15:48;;;;;;;7.78;6.75;;;921.60;1075.20;;;;;;5093420;28;20024;-61
2021/09/02 08:18:14;;;;;;;15.30;7.25;;;870.50;1100.80;;;;;;5093711;28;20032;-61
2021/09/02 08:20:40;;;;;;;7.60;6.75;;;820.10;1152.00;;;;;;5093197;28;20020;-60
2021/09/02 08:23:06;;;;;;;8.05;6.85;;;819.20;1177.60;;;;;;5093327;28;20037;-60
2021/09/02 08:25:32;;;;;;;7.35;6.32;;;768.60;1228.80;;;;;;5093072;28;20103;-60
2021/09/02 08:27:58;;;;;;;10.07;7.03;;;743.00;1280.00;;;;;;5093068;28;20107;-61
2021/09/02 08:30:26;;;;;;;10.05;7.53;;;742.50;1331.20;;;;;;5093189;28;20084;-60
2021/09/02 08:32:53;;;;;;;8.32;6.78;;;743.20;1280.00;;;;;;5093110;28;20035;-60
2021/09/02 08:35:25;;;;;;;7.80;6.60;;;768.10;1280.00;;;;;;5092859;28;20024;-61
2021/09/02 08:37:52;;;;;;;7.03;6.30;;;743.00;1305.60;;;;;;5093013;28;20103;-60
2021/09/02 08:40:21;;;;;;;8.90;7.35;;;717.60;1331.20;;;;;;5092942;28;20028;-60
2021/09/02 08:42:48;;;;;;;6.90;5.97;;;717.70;1356.80;;;;;;5093245;28;20165;-60
2021/09/02 08:45:14;;;;;;;9.23;7.00;;;716.90;1408.00;;;;;;5093016;28;20020;-60
2021/09/02 08:47:46;;;;;;;7.50;6.32;;;691.40;1408.00;;;;;;5093003;28;20028;-60
2021/09/02 08:50:12;;;;;;;7.95;7.13;;;666.50;1408.00;;;;;;5092845;28;20374;-60
2021/09/02 08:52:38;;;;;;;7.35;6.25;;;691.30;1408.00;;;;;;5092631;28;20415;-61
2021/09/02 08:55:04;;;;;;;8.60;5.88;;;691.30;1433.60;;;;;;5092915;28;20070;-60
2021/09/02 08:57:31;;;;;;;9.65;6.70;;;666.10;1459.20;;;;;;5092420;28;20052;-60
2021/09/02 08:59:57;;;;;;;7.38;5.93;;;665.70;1459.20;;;;;;5092876;28;20020;-59
2021/09/02 09:02:32;;;;;;;7.70;6.43;;;665.60;1484.80;;;;;;5092900;28;20022;-60
2021/09/02 09:05:09;;;;;;;11.50;7.50;;;640.20;1510.40;;;;;;5092672;28;20028;-59
2021/09/02 09:07:37;;;;;;;10.73;6.78;;;640.70;1510.40;;;;;;5092760;28;20428;-60
2021/09/02 09:10:10;;;;;;;7.53;6.55;;;640.60;1510.40;;;;;;5092587;28;20509;-60
2021/09/02 09:12:42;;;;;;;10.63;6.95;;;640.90;1484.80;;;;;;5092376;28;20016;-59
2021/09/02 09:15:14;;;;;;;8.18;7.13;;;665.60;1536.00;;;;;;5092466;28;20025;-61
2021/09/02 09:17:40;;;;;;;8.23;7.13;;;665.70;1510.40;;;;;;5092230;28;20028;-60
2021/09/02 09:20:07;;;;;;;9.32;6.45;;;665.90;1510.40;;;;;;5092212;28;20436;-60
2021/09/02 09:22:34;;;;;;;8.25;6.35;;;666.30;1510.40;;;;;;5091653;28;20020;-60
2021/09/02 09:25:08;;;;;;;9.43;6.45;;;666.50;1459.20;;;;;;5091748;28;20016;-60
2021/09/02 09:27:37;;;;;;;9.00;6.30;;;666.50;1459.20;;;;;;5092406;28;20098;-60
2021/09/02 09:30:15;;;;;;;8.60;6.25;;;666.20;1459.20;;;;;;5092176;28;20062;-60
2021/09/02 09:32:47;;;;;;;7.18;5.78;;;666.30;1484.80;;;;;;5091612;28;20020;-60
2021/09/02 09:35:23;;;;;;;6.90;6.20;;;691.20;1433.60;;;;;;5091606;28;20528;-60
2021/09/02 09:38:01;;;;;;;7.60;6.07;;;691.70;1433.60;;;;;;5091572;28;20036;-62
2021/09/02 09:40:26;;;;;;;7.63;5.65;;;691.80;1408.00;;;;;;5091920;28;20475;-60
2021/09/02 09:42:59;;;;;;;6.95;5.90;;;692.10;1382.40;;;;;;5092564;28;20039;-60
2021/09/02 09:45:42;;;;;;;8.30;6.65;;;716.80;1382.40;;;;;;5092123;28;20028;-58
2021/09/02 09:48:30;;;;;;;7.40;6.30;;;691.30;1433.60;;;;;;5091663;28;20789;-60
2021/09/02 09:51:19;;;;;;;8.63;6.03;;;691.60;1408.00;;;;;;5091617;28;20101;-59
2021/09/02 09:53:48;;;;;;;14.30;6.88;;;691.70;1382.40;;;;;;5091942;28;20034;-60
2021/09/02 09:56:17;;;;;;;8.88;6.88;;;691.90;1408.00;;;;;;5091500;28;20103;-60
2021/09/02 09:58:45;;;;;;;7.75;6.10;;;692.10;1408.00;;;;;;5091384;28;20052;-60
2021/09/02 10:01:12;;;;;;;9.45;7.18;;;716.80;1408.00;;;;;;5091448;28;20028;-60
2021/09/02 10:03:39;;;;;;;8.63;6.18;;;717.00;1408.00;;;;;;5091503;28;20051;-61
2021/09/02 10:06:07;;;;;;;8.93;6.95;;;717.10;1408.00;;;;;;5091210;28;20386;-60
2021/09/02 10:08:42;;;;;;;6.53;5.93;;;692.10;1408.00;;;;;;5091419;28;20069;-60
2021/09/02 10:11:10;;;;;;;9.90;6.90;;;691.30;1433.60;;;;;;5091404;28;20331;-60
2021/09/02 10:13:37;;;;;;;7.47;5.57;;;691.20;1408.00;;;;;;5091399;28;20039;-60
2021/09/02 10:16:04;;;;;;;8.52;5.80;;;665.90;1459.20;;;;;;5091347;28;20442;-60
2021/09/02 10:18:31;;;;;;;5.97;5.28;;;665.70;1459.20;;;;;;5091178;28;20024;-60
2021/09/02 10:21:03;;;;;;;12.20;5.88;;;640.90;1433.60;;;;;;5091444;28;20378;-60
2021/09/02 10:23:29;;;;;;;6.50;5.23;;;640.60;1484.80;;;;;;5093678;28;20465;-59
2021/09/02 10:25:55;;;;;;;7.25;5.78;;;640.60;1459.20;;;;;;5094120;28;20267;-61
2021/09/02 10:28:35;;;;;;;7.00;6.28;;;640.20;1459.20;;;;;;5093757;28;20055;-59
2021/09/02 10:31:05;;;;;;;11.38;5.65;;;640.10;1484.80;;;;;;5093819;28;20492;-60
2021/09/02 10:33:32;;;;;;;7.20;5.53;;;640.10;1484.80;;;;;;5093593;28;20512;-60
2021/09/02 10:35:58;;;;;;;6.82;5.25;;;640.20;1510.40;;;;;;5093522;28;20028;-60
2021/09/02 10:38:56;;;;;;;7.43;5.15;;;640.20;1433.60;;;;;;5093823;28;20039;-60
2021/09/02 10:41:37;;;;;;;6.50;5.50;;;640.50;1459.20;;;;;;5093225;28;20028;-60
2021/09/02 10:44:05;;;;;;;6.10;5.10;;;640.60;1459.20;;;;;;5093658;28;20039;-60
2021/09/02 10:46:45;;;;;;;9.40;4.90;;;640.70;1408.00;;;;;;5093575;28;20028;-60
2021/09/02 10:49:32;;;;;;;5.00;4.47;;;665.60;1382.40;;;;;;5093520;28;20027;-61
2021/09/02 10:51:59;;;;;;;7.68;4.60;;;665.80;1356.80;;;;;;5093489;28;20024;-59
2021/09/02 10:54:33;;;;;;;9.60;5.38;;;665.90;1408.00;;;;;;5093381;28;20036;-59
2021/09/02 10:57:12;;;;;;;6.95;5.53;;;666.00;1408.00;;;;;;5088445;28;20036;-61
2021/09/02 10:59:59;;;;;;;7.15;5.82;;;665.70;1433.60;;;;;;5088500;28;20520;-62
2021/09/02 11:02:24;;;;;;;10.00;5.32;;;665.70;1433.60;;;;;;5088891;28;20517;-60
2021/09/02 11:05:02;;;;;;;8.68;5.55;;;665.60;1459.20;;;;;;5089867;28;20035;-60
2021/09/02 11:07:44;;;;;;;8.02;5.95;;;640.90;1433.60;;;;;;5090248;28;20552;-60
2021/09/02 11:10:17;;;;;;;6.78;5.60;;;665.60;1459.20;;;;;;5090172;28;20016;-60
2021/09/02 11:12:43;;;;;;;10.15;5.60;;;640.70;1433.60;;;;;;5090579;28;20039;-59
2021/09/02 11:15:10;;;;;;;5.47;4.97;;;640.50;1459.20;;;;;;5090236;28;20028;-60
2021/09/02 11:17:36;;;;;;;7.45;5.05;;;640.40;1459.20;;;;;;5090280;28;20104;-60
2021/09/02 11:20:17;;;;;;;6.22;4.68;;;640.50;1433.60;;;;;;5090037;28;20420;-60
2021/09/02 11:22:45;;;;;;;6.88;4.95;;;640.70;1433.60;;;;;;5090105;28;20359;-60
2021/09/02 11:25:11;;;;;;;5.68;4.63;;;640.90;1433.60;;;;;;5090105;28;20020;-60
2021/09/02 11:27:36;;;;;;;7.20;4.47;;;640.90;1433.60;;;;;;5090108;28;20020;-60
2021/09/02 11:30:16;;;;;;;9.55;5.28;;;665.60;1484.80;;;;;;5087883;28;20099;-60
2021/09/02 11:32:42;;;;;;;7.72;5.57;;;665.70;1433.60;;;;;;5088352;28;20381;-60
2021/09/02 11:35:09;;;;;;;10.73;5.93;;;665.90;1433.60;;;;;;5088128;28;20363;-61
2021/09/02 11:37:40;;;;;;;8.93;5.97;;;665.70;1459.20;;;;;;5088597;28;20128;-60
2021/09/02 11:40:07;;;;;;;8.05;5.82;;;665.60;1510.40;;;;;;5088695;28;20074;-60
2021/09/02 11:42:33;;;;;;;8.60;5.47;;;640.50;1484.80;;;;;;5087986;28;20028;-59
2021/09/02 11:45:00;;;;;;;8.65;5.28;;;640.40;1484.80;;;;;;5088174;28;20073;-61
2021/09/02 11:47:34;;;;;;;7.05;4.93;;;640.20;1484.80;;;;;;5091330;28;20038;-60
2021/09/02 11:50:00;;;;;;;7.43;5.03;;;615.30;1510.40;;;;;;5092138;28;20031;-61
2021/09/02 11:52:40;;;;;;;8.48;6.00;;;640.10;1484.80;;;;;;5092355;28;20119;-59
2021/09/02 11:55:07;;;;;;;6.93;5.15;;;640.40;1459.20;;;;;;5091863;28;20035;-60
2021/09/02 11:57:33;;;;;;;7.43;5.00;;;640.50;1484.80;;;;;;5092188;28;20047;-60
2021/09/02 11:59:58;;;;;;;6.53;5.30;;;640.50;1484.80;;;;;;5092152;28;20028;-60
2021/09/02 12:02:24;;;;;;;8.70;5.40;;;640.50;1510.40;;;;;;5092106;28;20525;-60
2021/09/02 12:04:51;;;;;;;6.63;5.68;;;640.60;1484.80;;;;;;5092077;28;20071;-60
2021/09/02 12:07:18;;;;;;;8.63;6.32;;;640.20;1484.80;;;;;;5092107;28;20067;-60
2021/09/02 12:09:50;;;;;;;8.02;4.82;;;615.20;1510.40;;;;;;5091873;28;20028;-60
2021/09/02 12:12:32;;;;;;;8.30;5.47;;;640.00;1510.40;;;;;;5092089;28;20123;-60
2021/09/02 12:14:58;;;;;;;6.30;5.25;;;640.00;1536.00;;;;;;5091717;28;20797;-62